sensor_id;sensor_type;location;lat;lon;timestamp;P1;durP1;ratioP1;P2;durP2;ratioP2
70796;SDS011;63842;52.144;5.360;2022-12-18T00:01:48;40.13;;;13.98;;
70796;SDS011;63842;52.144;5.360;2022-12-18T00:04:20;39.85;;;14.43;;
70796;SDS011;63842;52.144;5.360;2022-12-18T00:06:48;37.65;;;13.05;;
70796;SDS011;63842;52.144;5.360;2022-12-18T00:09:16;34.50;;;12.57;;
70796;SDS011;63842;52.144;5.360;2022-12-18T00:11:43;37.90;;;14.30;;
70796;SDS011;63842;52.144;5.360;2022-12-18T00:14:11;36.25;;;13.05;;
70796;SDS011;63842;52.144;5.360;2022-12-18T00:16:39;36.88;;;13.82;;
70796;SDS011;63842;52.144;5.360;2022-12-18T00:19:08;36.53;;;13.20;;
70796;SDS011;63842;52.144;5.360;2022-12-18T00:21:36;37.55;;;13.65;;
70796;SDS011;63842;52.144;5.360;2022-12-18T00:24:03;39.35;;;14.40;;
70796;SDS011;63842;52.144;5.360;2022-12-18T00:26:31;39.28;;;13.63;;
70796;SDS011;63842;52.144;5.360;2022-12-18T00:29:01;40.53;;;14.75;;
70796;SDS011;63842;52.144;5.360;2022-12-18T00:31:31;42.28;;;14.88;;
70796;SDS011;63842;52.144;5.360;2022-12-18T00:34:00;40.22;;;14.00;;
70796;SDS011;63842;52.144;5.360;2022-12-18T00:36:28;43.75;;;14.48;;
70796;SDS011;63842;52.144;5.360;2022-12-18T00:38:56;40.20;;;13.98;;
70796;SDS011;63842;52.144;5.360;2022-12-18T00:41:24;43.03;;;14.40;;
70796;SDS011;63842;52.144;5.360;2022-12-18T00:44:11;35.00;;;13.57;;
70796;SDS011;63842;52.144;5.360;2022-12-18T00:46:39;38.10;;;13.25;;
70796;SDS011;63842;52.144;5.360;2022-12-18T00:49:06;42.80;;;14.73;;
70796;SDS011;63842;52.144;5.360;2022-12-18T00:51:34;36.13;;;13.82;;
70796;SDS011;63842;52.144;5.360;2022-12-18T00:54:01;43.03;;;14.25;;
70796;SDS011;63842;52.144;5.360;2022-12-18T00:56:29;43.00;;;13.48;;
70796;SDS011;63842;52.144;5.360;2022-12-18T00:58:56;37.58;;;13.68;;
70796;SDS011;63842;52.144;5.360;2022-12-18T01:01:24;38.88;;;13.48;;
70796;SDS011;63842;52.144;5.360;2022-12-18T01:03:51;41.10;;;15.10;;
70796;SDS011;63842;52.144;5.360;2022-12-18T01:06:19;44.10;;;15.15;;
70796;SDS011;63842;52.144;5.360;2022-12-18T01:08:46;40.20;;;14.00;;
70796;SDS011;63842;52.144;5.360;2022-12-18T01:11:14;40.92;;;14.43;;
70796;SDS011;63842;52.144;5.360;2022-12-18T01:13:42;39.75;;;14.60;;
70796;SDS011;63842;52.144;5.360;2022-12-18T01:16:13;38.25;;;14.20;;
70796;SDS011;63842;52.144;5.360;2022-12-18T01:18:41;41.30;;;13.90;;
70796;SDS011;63842;52.144;5.360;2022-12-18T01:21:09;42.10;;;14.20;;
70796;SDS011;63842;52.144;5.360;2022-12-18T01:23:36;38.42;;;13.38;;
70796;SDS011;63842;52.144;5.360;2022-12-18T01:26:09;39.83;;;14.80;;
70796;SDS011;63842;52.144;5.360;2022-12-18T01:28:37;41.00;;;13.75;;
70796;SDS011;63842;52.144;5.360;2022-12-18T01:31:13;44.28;;;16.00;;
70796;SDS011;63842;52.144;5.360;2022-12-18T01:33:41;40.17;;;14.68;;
70796;SDS011;63842;52.144;5.360;2022-12-18T01:36:11;37.20;;;13.77;;
70796;SDS011;63842;52.144;5.360;2022-12-18T01:38:41;39.80;;;14.43;;
70796;SDS011;63842;52.144;5.360;2022-12-18T01:41:08;36.28;;;13.23;;
70796;SDS011;63842;52.144;5.360;2022-12-18T01:43:47;39.53;;;13.30;;
70796;SDS011;63842;52.144;5.360;2022-12-18T01:46:17;38.30;;;13.50;;
70796;SDS011;63842;52.144;5.360;2022-12-18T01:48:45;41.35;;;13.65;;
70796;SDS011;63842;52.144;5.360;2022-12-18T01:51:13;35.83;;;13.57;;
70796;SDS011;63842;52.144;5.360;2022-12-18T01:53:41;41.35;;;14.57;;
70796;SDS011;63842;52.144;5.360;2022-12-18T01:56:11;39.25;;;13.38;;
70796;SDS011;63842;52.144;5.360;2022-12-18T02:01:20;38.65;;;13.85;;
70796;SDS011;63842;52.144;5.360;2022-12-18T02:03:49;42.25;;;13.45;;
70796;SDS011;63842;52.144;5.360;2022-12-18T02:06:19;38.88;;;14.23;;
70796;SDS011;63842;52.144;5.360;2022-12-18T02:11:37;41.60;;;14.48;;
70796;SDS011;63842;52.144;5.360;2022-12-18T02:14:18;40.17;;;14.90;;
70796;SDS011;63842;52.144;5.360;2022-12-18T02:16:52;39.45;;;14.45;;
70796;SDS011;63842;52.144;5.360;2022-12-18T02:21:54;40.60;;;15.40;;
70796;SDS011;63842;52.144;5.360;2022-12-18T02:24:40;40.05;;;14.40;;
70796;SDS011;63842;52.144;5.360;2022-12-18T02:27:11;38.97;;;13.50;;
70796;SDS011;63842;52.144;5.360;2022-12-18T02:29:44;38.67;;;14.93;;
70796;SDS011;63842;52.144;5.360;2022-12-18T02:32:20;40.17;;;13.98;;
70796;SDS011;63842;52.144;5.360;2022-12-18T02:34:50;38.58;;;14.10;;
70796;SDS011;63842;52.144;5.360;2022-12-18T02:37:20;37.08;;;13.95;;
70796;SDS011;63842;52.144;5.360;2022-12-18T02:39:49;38.03;;;14.32;;
70796;SDS011;63842;52.144;5.360;2022-12-18T02:42:19;38.50;;;15.23;;
70796;SDS011;63842;52.144;5.360;2022-12-18T02:44:48;41.75;;;14.27;;
70796;SDS011;63842;52.144;5.360;2022-12-18T02:47:22;36.50;;;13.90;;
70796;SDS011;63842;52.144;5.360;2022-12-18T02:50:34;36.53;;;13.98;;
70796;SDS011;63842;52.144;5.360;2022-12-18T02:58:08;37.30;;;13.98;;
70796;SDS011;63842;52.144;5.360;2022-12-18T03:00:53;37.28;;;13.18;;
70796;SDS011;63842;52.144;5.360;2022-12-18T03:03:29;33.33;;;13.30;;
70796;SDS011;63842;52.144;5.360;2022-12-18T03:05:58;35.10;;;13.05;;
70796;SDS011;63842;52.144;5.360;2022-12-18T03:08:28;35.35;;;14.48;;
70796;SDS011;63842;52.144;5.360;2022-12-18T03:11:05;34.35;;;12.52;;
70796;SDS011;63842;52.144;5.360;2022-12-18T03:13:55;35.35;;;13.13;;
70796;SDS011;63842;52.144;5.360;2022-12-18T03:16:23;36.35;;;14.02;;
70796;SDS011;63842;52.144;5.360;2022-12-18T03:18:52;38.33;;;14.68;;
70796;SDS011;63842;52.144;5.360;2022-12-18T03:21:23;36.08;;;13.23;;
70796;SDS011;63842;52.144;5.360;2022-12-18T03:23:52;36.83;;;14.10;;
70796;SDS011;63842;52.144;5.360;2022-12-18T03:26:24;37.75;;;14.43;;
70796;SDS011;63842;52.144;5.360;2022-12-18T03:28:58;39.22;;;13.63;;
70796;SDS011;63842;52.144;5.360;2022-12-18T03:31:27;38.58;;;14.65;;
70796;SDS011;63842;52.144;5.360;2022-12-18T03:33:59;37.25;;;13.60;;
70796;SDS011;63842;52.144;5.360;2022-12-18T03:36:37;40.13;;;13.68;;
70796;SDS011;63842;52.144;5.360;2022-12-18T03:39:04;31.98;;;13.02;;
70796;SDS011;63842;52.144;5.360;2022-12-18T03:41:45;37.30;;;13.50;;
70796;SDS011;63842;52.144;5.360;2022-12-18T03:49:23;38.35;;;12.77;;
70796;SDS011;63842;52.144;5.360;2022-12-18T03:51:57;36.35;;;13.02;;
70796;SDS011;63842;52.144;5.360;2022-12-18T03:54:26;32.80;;;11.95;;
70796;SDS011;63842;52.144;5.360;2022-12-18T03:57:08;29.17;;;12.30;;
70796;SDS011;63842;52.144;5.360;2022-12-18T03:59:36;37.50;;;13.52;;
70796;SDS011;63842;52.144;5.360;2022-12-18T04:02:06;32.83;;;12.80;;
70796;SDS011;63842;52.144;5.360;2022-12-18T04:04:37;33.70;;;12.90;;
70796;SDS011;63842;52.144;5.360;2022-12-18T04:07:06;32.13;;;13.02;;
70796;SDS011;63842;52.144;5.360;2022-12-18T04:09:36;34.28;;;13.73;;
70796;SDS011;63842;52.144;5.360;2022-12-18T04:12:08;31.70;;;11.85;;
70796;SDS011;63842;52.144;5.360;2022-12-18T04:14:35;37.35;;;13.77;;
70796;SDS011;63842;52.144;5.360;2022-12-18T04:17:06;32.38;;;11.80;;
70796;SDS011;63842;52.144;5.360;2022-12-18T04:19:34;34.35;;;13.40;;
70796;SDS011;63842;52.144;5.360;2022-12-18T04:22:02;31.88;;;12.27;;
70796;SDS011;63842;52.144;5.360;2022-12-18T04:24:37;31.52;;;12.10;;
70796;SDS011;63842;52.144;5.360;2022-12-18T04:27:14;35.42;;;12.98;;
70796;SDS011;63842;52.144;5.360;2022-12-18T04:29:46;35.22;;;12.35;;
70796;SDS011;63842;52.144;5.360;2022-12-18T04:32:14;31.20;;;12.73;;
70796;SDS011;63842;52.144;5.360;2022-12-18T04:34:43;28.67;;;13.40;;
70796;SDS011;63842;52.144;5.360;2022-12-18T04:37:10;35.90;;;12.45;;
70796;SDS011;63842;52.144;5.360;2022-12-18T04:39:38;28.95;;;12.90;;
70796;SDS011;63842;52.144;5.360;2022-12-18T04:42:12;30.60;;;12.05;;
70796;SDS011;63842;52.144;5.360;2022-12-18T04:44:39;27.63;;;11.73;;
70796;SDS011;63842;52.144;5.360;2022-12-18T04:47:06;33.08;;;12.60;;
70796;SDS011;63842;52.144;5.360;2022-12-18T04:49:34;31.15;;;12.48;;
70796;SDS011;63842;52.144;5.360;2022-12-18T04:52:01;28.30;;;11.57;;
70796;SDS011;63842;52.144;5.360;2022-12-18T04:54:28;28.70;;;12.07;;
70796;SDS011;63842;52.144;5.360;2022-12-18T04:56:56;28.50;;;11.30;;
70796;SDS011;63842;52.144;5.360;2022-12-18T04:59:23;27.20;;;11.32;;
70796;SDS011;63842;52.144;5.360;2022-12-18T05:01:50;31.23;;;11.70;;
70796;SDS011;63842;52.144;5.360;2022-12-18T05:04:19;30.92;;;11.88;;
70796;SDS011;63842;52.144;5.360;2022-12-18T05:06:46;28.80;;;10.70;;
70796;SDS011;63842;52.144;5.360;2022-12-18T05:09:13;30.48;;;11.18;;
70796;SDS011;63842;52.144;5.360;2022-12-18T05:11:41;24.77;;;11.50;;
70796;SDS011;63842;52.144;5.360;2022-12-18T05:14:09;23.90;;;9.90;;
70796;SDS011;63842;52.144;5.360;2022-12-18T05:16:36;30.02;;;11.02;;
70796;SDS011;63842;52.144;5.360;2022-12-18T05:19:03;27.35;;;10.93;;
70796;SDS011;63842;52.144;5.360;2022-12-18T05:21:30;31.23;;;11.02;;
70796;SDS011;63842;52.144;5.360;2022-12-18T05:24:07;25.35;;;10.70;;
70796;SDS011;63842;52.144;5.360;2022-12-18T05:27:08;26.23;;;10.57;;
70796;SDS011;63842;52.144;5.360;2022-12-18T05:29:35;22.85;;;9.45;;
70796;SDS011;63842;52.144;5.360;2022-12-18T05:32:03;24.63;;;10.32;;
70796;SDS011;63842;52.144;5.360;2022-12-18T05:34:30;26.13;;;10.38;;
70796;SDS011;63842;52.144;5.360;2022-12-18T05:36:59;25.55;;;10.43;;
70796;SDS011;63842;52.144;5.360;2022-12-18T05:39:26;27.23;;;9.98;;
70796;SDS011;63842;52.144;5.360;2022-12-18T05:41:53;24.92;;;10.13;;
70796;SDS011;63842;52.144;5.360;2022-12-18T05:44:21;25.45;;;10.50;;
70796;SDS011;63842;52.144;5.360;2022-12-18T05:46:48;22.65;;;9.35;;
70796;SDS011;63842;52.144;5.360;2022-12-18T05:49:15;24.52;;;10.38;;
70796;SDS011;63842;52.144;5.360;2022-12-18T05:51:43;24.15;;;9.95;;
70796;SDS011;63842;52.144;5.360;2022-12-18T05:54:10;24.90;;;9.90;;
70796;SDS011;63842;52.144;5.360;2022-12-18T05:56:37;22.92;;;8.68;;
70796;SDS011;63842;52.144;5.360;2022-12-18T05:59:10;21.80;;;8.65;;
70796;SDS011;63842;52.144;5.360;2022-12-18T06:01:38;22.48;;;9.38;;
70796;SDS011;63842;52.144;5.360;2022-12-18T06:04:05;23.75;;;9.35;;
70796;SDS011;63842;52.144;5.360;2022-12-18T06:06:32;20.90;;;9.00;;
70796;SDS011;63842;52.144;5.360;2022-12-18T06:09:01;25.85;;;9.98;;
70796;SDS011;63842;52.144;5.360;2022-12-18T06:11:34;21.88;;;9.20;;
70796;SDS011;63842;52.144;5.360;2022-12-18T06:14:02;25.05;;;9.63;;
70796;SDS011;63842;52.144;5.360;2022-12-18T06:16:29;21.40;;;9.15;;
70796;SDS011;63842;52.144;5.360;2022-12-18T06:18:58;19.65;;;8.85;;
70796;SDS011;63842;52.144;5.360;2022-12-18T06:21:26;24.50;;;8.52;;
70796;SDS011;63842;52.144;5.360;2022-12-18T06:23:53;19.48;;;9.05;;
70796;SDS011;63842;52.144;5.360;2022-12-18T06:26:20;22.58;;;9.20;;
70796;SDS011;63842;52.144;5.360;2022-12-18T06:28:53;23.25;;;8.93;;
70796;SDS011;63842;52.144;5.360;2022-12-18T06:31:20;22.33;;;8.20;;
70796;SDS011;63842;52.144;5.360;2022-12-18T06:33:48;20.45;;;7.72;;
70796;SDS011;63842;52.144;5.360;2022-12-18T06:36:15;23.48;;;9.27;;
70796;SDS011;63842;52.144;5.360;2022-12-18T06:38:43;21.02;;;9.25;;
70796;SDS011;63842;52.144;5.360;2022-12-18T06:41:11;23.05;;;8.60;;
70796;SDS011;63842;52.144;5.360;2022-12-18T06:43:39;22.70;;;8.88;;
70796;SDS011;63842;52.144;5.360;2022-12-18T06:46:07;18.65;;;8.43;;
70796;SDS011;63842;52.144;5.360;2022-12-18T06:48:35;21.30;;;8.88;;
70796;SDS011;63842;52.144;5.360;2022-12-18T06:51:02;19.50;;;8.05;;
70796;SDS011;63842;52.144;5.360;2022-12-18T06:53:30;19.75;;;8.10;;
70796;SDS011;63842;52.144;5.360;2022-12-18T06:56:01;18.90;;;8.77;;
70796;SDS011;63842;52.144;5.360;2022-12-18T06:58:35;19.77;;;8.50;;
70796;SDS011;63842;52.144;5.360;2022-12-18T07:01:07;21.63;;;9.02;;
70796;SDS011;63842;52.144;5.360;2022-12-18T07:03:40;24.05;;;9.00;;
70796;SDS011;63842;52.144;5.360;2022-12-18T07:06:16;20.50;;;8.65;;
70796;SDS011;63842;52.144;5.360;2022-12-18T07:08:44;21.27;;;8.48;;
70796;SDS011;63842;52.144;5.360;2022-12-18T07:11:13;19.02;;;8.75;;
70796;SDS011;63842;52.144;5.360;2022-12-18T07:13:41;21.10;;;8.25;;
70796;SDS011;63842;52.144;5.360;2022-12-18T07:16:16;19.77;;;8.07;;
70796;SDS011;63842;52.144;5.360;2022-12-18T07:18:50;19.73;;;9.05;;
70796;SDS011;63842;52.144;5.360;2022-12-18T07:21:18;20.75;;;9.15;;
70796;SDS011;63842;52.144;5.360;2022-12-18T07:23:46;21.15;;;8.20;;
70796;SDS011;63842;52.144;5.360;2022-12-18T07:26:16;20.75;;;9.18;;
70796;SDS011;63842;52.144;5.360;2022-12-18T07:28:44;19.20;;;8.20;;
70796;SDS011;63842;52.144;5.360;2022-12-18T07:31:12;20.55;;;8.23;;
70796;SDS011;63842;52.144;5.360;2022-12-18T07:33:40;19.63;;;7.75;;
70796;SDS011;63842;52.144;5.360;2022-12-18T07:36:09;19.35;;;8.35;;
70796;SDS011;63842;52.144;5.360;2022-12-18T07:38:37;22.23;;;9.43;;
70796;SDS011;63842;52.144;5.360;2022-12-18T07:41:11;19.90;;;8.27;;
70796;SDS011;63842;52.144;5.360;2022-12-18T07:43:39;29.95;;;9.73;;
70796;SDS011;63842;52.144;5.360;2022-12-18T07:46:07;21.83;;;8.18;;
70796;SDS011;63842;52.144;5.360;2022-12-18T07:48:35;23.33;;;8.85;;
70796;SDS011;63842;52.144;5.360;2022-12-18T07:51:03;19.42;;;8.15;;
70796;SDS011;63842;52.144;5.360;2022-12-18T07:53:31;19.80;;;7.57;;
70796;SDS011;63842;52.144;5.360;2022-12-18T07:55:59;22.23;;;8.13;;
70796;SDS011;63842;52.144;5.360;2022-12-18T07:58:47;21.20;;;8.23;;
70796;SDS011;63842;52.144;5.360;2022-12-18T08:01:14;20.42;;;8.13;;
70796;SDS011;63842;52.144;5.360;2022-12-18T08:03:42;23.00;;;8.32;;
70796;SDS011;63842;52.144;5.360;2022-12-18T08:06:09;21.98;;;8.45;;
70796;SDS011;63842;52.144;5.360;2022-12-18T08:08:37;17.40;;;8.35;;
70796;SDS011;63842;52.144;5.360;2022-12-18T08:11:04;20.23;;;7.97;;
70796;SDS011;63842;52.144;5.360;2022-12-18T08:13:31;18.55;;;7.93;;
70796;SDS011;63842;52.144;5.360;2022-12-18T08:16:03;20.55;;;7.93;;
70796;SDS011;63842;52.144;5.360;2022-12-18T08:18:32;20.90;;;8.80;;
70796;SDS011;63842;52.144;5.360;2022-12-18T08:21:19;18.20;;;7.82;;
70796;SDS011;63842;52.144;5.360;2022-12-18T08:23:48;17.40;;;8.38;;
70796;SDS011;63842;52.144;5.360;2022-12-18T08:26:17;22.10;;;8.48;;
70796;SDS011;63842;52.144;5.360;2022-12-18T08:28:46;17.17;;;7.93;;
70796;SDS011;63842;52.144;5.360;2022-12-18T08:31:13;18.65;;;7.72;;
70796;SDS011;63842;52.144;5.360;2022-12-18T08:33:40;20.58;;;8.38;;
70796;SDS011;63842;52.144;5.360;2022-12-18T08:36:09;20.17;;;8.90;;
70796;SDS011;63842;52.144;5.360;2022-12-18T08:38:36;22.02;;;8.35;;
70796;SDS011;63842;52.144;5.360;2022-12-18T08:41:08;18.70;;;8.32;;
70796;SDS011;63842;52.144;5.360;2022-12-18T08:43:36;20.35;;;8.40;;
70796;SDS011;63842;52.144;5.360;2022-12-18T08:46:23;20.75;;;8.63;;
70796;SDS011;63842;52.144;5.360;2022-12-18T08:48:51;18.77;;;7.90;;
70796;SDS011;63842;52.144;5.360;2022-12-18T08:51:19;20.25;;;8.93;;
70796;SDS011;63842;52.144;5.360;2022-12-18T08:53:46;18.50;;;8.55;;
70796;SDS011;63842;52.144;5.360;2022-12-18T08:56:14;22.35;;;9.90;;
70796;SDS011;63842;52.144;5.360;2022-12-18T08:58:41;21.52;;;9.07;;
70796;SDS011;63842;52.144;5.360;2022-12-18T09:01:10;21.55;;;8.90;;
70796;SDS011;63842;52.144;5.360;2022-12-18T09:03:38;18.35;;;8.38;;
70796;SDS011;63842;52.144;5.360;2022-12-18T09:06:06;18.65;;;8.43;;
70796;SDS011;63842;52.144;5.360;2022-12-18T09:08:34;18.58;;;8.43;;
70796;SDS011;63842;52.144;5.360;2022-12-18T09:11:01;19.85;;;8.57;;
70796;SDS011;63842;52.144;5.360;2022-12-18T09:13:28;18.75;;;8.60;;
70796;SDS011;63842;52.144;5.360;2022-12-18T09:15:55;19.63;;;8.50;;
70796;SDS011;63842;52.144;5.360;2022-12-18T09:18:23;20.38;;;8.82;;
70796;SDS011;63842;52.144;5.360;2022-12-18T09:20:51;19.50;;;8.27;;
70796;SDS011;63842;52.144;5.360;2022-12-18T09:23:19;17.10;;;7.93;;
70796;SDS011;63842;52.144;5.360;2022-12-18T09:25:46;20.58;;;8.93;;
70796;SDS011;63842;52.144;5.360;2022-12-18T09:28:15;19.20;;;8.20;;
70796;SDS011;63842;52.144;5.360;2022-12-18T09:30:47;20.75;;;9.18;;
70796;SDS011;63842;52.144;5.360;2022-12-18T09:33:15;22.55;;;9.63;;
70796;SDS011;63842;52.144;5.360;2022-12-18T09:35:43;21.83;;;8.95;;
70796;SDS011;63842;52.144;5.360;2022-12-18T09:38:12;19.45;;;8.77;;
70796;SDS011;63842;52.144;5.360;2022-12-18T09:40:41;17.98;;;8.93;;
70796;SDS011;63842;52.144;5.360;2022-12-18T09:43:20;23.17;;;9.15;;
70796;SDS011;63842;52.144;5.360;2022-12-18T09:45:50;20.38;;;9.15;;
70796;SDS011;63842;52.144;5.360;2022-12-18T09:48:21;19.35;;;8.10;;
70796;SDS011;63842;52.144;5.360;2022-12-18T09:50:49;20.63;;;8.48;;
70796;SDS011;63842;52.144;5.360;2022-12-18T09:53:19;18.15;;;8.48;;
70796;SDS011;63842;52.144;5.360;2022-12-18T09:55:47;18.00;;;8.05;;
70796;SDS011;63842;52.144;5.360;2022-12-18T09:58:17;21.55;;;8.32;;
70796;SDS011;63842;52.144;5.360;2022-12-18T10:00:46;17.80;;;8.27;;
70796;SDS011;63842;52.144;5.360;2022-12-18T10:03:14;18.92;;;8.45;;
70796;SDS011;63842;52.144;5.360;2022-12-18T10:10:50;20.67;;;8.57;;
70796;SDS011;63842;52.144;5.360;2022-12-18T10:15:54;21.02;;;9.02;;
70796;SDS011;63842;52.144;5.360;2022-12-18T10:21:11;16.55;;;8.05;;
70796;SDS011;63842;52.144;5.360;2022-12-18T10:26:14;19.58;;;8.50;;
70796;SDS011;63842;52.144;5.360;2022-12-18T10:28:41;18.65;;;8.02;;
70796;SDS011;63842;52.144;5.360;2022-12-18T10:31:14;20.42;;;8.15;;
70796;SDS011;63842;52.144;5.360;2022-12-18T10:33:43;18.55;;;8.02;;
70796;SDS011;63842;52.144;5.360;2022-12-18T10:36:10;19.60;;;8.38;;
70796;SDS011;63842;52.144;5.360;2022-12-18T10:38:38;17.08;;;7.93;;
70796;SDS011;63842;52.144;5.360;2022-12-18T10:41:27;19.52;;;8.68;;
70796;SDS011;63842;52.144;5.360;2022-12-18T10:44:11;17.73;;;7.72;;
70796;SDS011;63842;52.144;5.360;2022-12-18T10:46:38;17.08;;;7.78;;
70796;SDS011;63842;52.144;5.360;2022-12-18T10:49:07;19.52;;;8.02;;
70796;SDS011;63842;52.144;5.360;2022-12-18T10:51:45;18.83;;;7.53;;
70796;SDS011;63842;52.144;5.360;2022-12-18T10:56:42;17.73;;;7.75;;
70796;SDS011;63842;52.144;5.360;2022-12-18T10:59:12;16.85;;;7.32;;
70796;SDS011;63842;52.144;5.360;2022-12-18T11:01:47;23.38;;;8.02;;
70796;SDS011;63842;52.144;5.360;2022-12-18T11:06:59;21.95;;;7.68;;
70796;SDS011;63842;52.144;5.360;2022-12-18T11:09:28;18.52;;;7.60;;
70796;SDS011;63842;52.144;5.360;2022-12-18T11:11:56;19.15;;;7.72;;
70796;SDS011;63842;52.144;5.360;2022-12-18T11:14:29;17.58;;;7.68;;
70796;SDS011;63842;52.144;5.360;2022-12-18T11:16:58;19.80;;;7.72;;
70796;SDS011;63842;52.144;5.360;2022-12-18T11:19:46;17.35;;;7.65;;
70796;SDS011;63842;52.144;5.360;2022-12-18T11:22:20;18.88;;;7.60;;
70796;SDS011;63842;52.144;5.360;2022-12-18T11:24:58;17.73;;;6.82;;
70796;SDS011;63842;52.144;5.360;2022-12-18T11:27:53;20.75;;;8.98;;
70796;SDS011;63842;52.144;5.360;2022-12-18T11:30:39;19.45;;;8.05;;
70796;SDS011;63842;52.144;5.360;2022-12-18T11:33:10;20.67;;;8.10;;
70796;SDS011;63842;52.144;5.360;2022-12-18T11:40:56;19.70;;;7.53;;
70796;SDS011;63842;52.144;5.360;2022-12-18T11:43:34;20.10;;;7.88;;
70796;SDS011;63842;52.144;5.360;2022-12-18T11:46:05;16.52;;;7.45;;
70796;SDS011;63842;52.144;5.360;2022-12-18T11:51:02;16.80;;;6.65;;
70796;SDS011;63842;52.144;5.360;2022-12-18T11:53:30;20.55;;;7.53;;
70796;SDS011;63842;52.144;5.360;2022-12-18T11:58:43;17.92;;;7.20;;
70796;SDS011;63842;52.144;5.360;2022-12-18T12:01:34;15.95;;;6.55;;
70796;SDS011;63842;52.144;5.360;2022-12-18T12:17:28;18.70;;;7.78;;
70796;SDS011;63842;52.144;5.360;2022-12-18T12:20:06;16.70;;;7.47;;
70796;SDS011;63842;52.144;5.360;2022-12-18T12:25:13;17.17;;;7.45;;
70796;SDS011;63842;52.144;5.360;2022-12-18T12:27:50;17.00;;;7.53;;
70796;SDS011;63842;52.144;5.360;2022-12-18T12:30:39;18.20;;;7.35;;
70796;SDS011;63842;52.144;5.360;2022-12-18T12:35:55;20.77;;;8.15;;
70796;SDS011;63842;52.144;5.360;2022-12-18T12:38:40;18.27;;;7.85;;
70796;SDS011;63842;52.144;5.360;2022-12-18T12:41:18;18.02;;;7.93;;
70796;SDS011;63842;52.144;5.360;2022-12-18T12:44:07;19.85;;;7.95;;
70796;SDS011;63842;52.144;5.360;2022-12-18T12:46:37;16.70;;;6.40;;
70796;SDS011;63842;52.144;5.360;2022-12-18T12:49:09;17.40;;;7.53;;
70796;SDS011;63842;52.144;5.360;2022-12-18T12:51:39;17.48;;;7.55;;
70796;SDS011;63842;52.144;5.360;2022-12-18T12:54:21;17.30;;;7.55;;
70796;SDS011;63842;52.144;5.360;2022-12-18T13:00:00;17.92;;;7.57;;
70796;SDS011;63842;52.144;5.360;2022-12-18T13:07:41;19.17;;;7.18;;
70796;SDS011;63842;52.144;5.360;2022-12-18T13:15:24;16.55;;;6.90;;
70796;SDS011;63842;52.144;5.360;2022-12-18T13:20:32;18.27;;;9.10;;
70796;SDS011;63842;52.144;5.360;2022-12-18T13:23:00;20.73;;;9.07;;
70796;SDS011;63842;52.144;5.360;2022-12-18T13:25:35;20.83;;;9.10;;
70796;SDS011;63842;52.144;5.360;2022-12-18T13:28:04;20.45;;;8.05;;
70796;SDS011;63842;52.144;5.360;2022-12-18T13:35:41;20.92;;;9.80;;
70796;SDS011;63842;52.144;5.360;2022-12-18T13:48:37;19.15;;;8.63;;
70796;SDS011;63842;52.144;5.360;2022-12-18T13:51:10;17.80;;;7.90;;
70796;SDS011;63842;52.144;5.360;2022-12-18T13:56:09;19.00;;;8.13;;
70796;SDS011;63842;52.144;5.360;2022-12-18T13:58:36;17.92;;;8.23;;
70796;SDS011;63842;52.144;5.360;2022-12-18T14:01:04;17.58;;;7.50;;
70796;SDS011;63842;52.144;5.360;2022-12-18T14:03:33;19.67;;;7.60;;
70796;SDS011;63842;52.144;5.360;2022-12-18T14:06:02;19.85;;;8.32;;
70796;SDS011;63842;52.144;5.360;2022-12-18T14:08:37;18.10;;;7.75;;
70796;SDS011;63842;52.144;5.360;2022-12-18T14:11:06;17.90;;;8.20;;
70796;SDS011;63842;52.144;5.360;2022-12-18T14:13:37;18.17;;;7.85;;
70796;SDS011;63842;52.144;5.360;2022-12-18T14:16:06;20.88;;;8.60;;
70796;SDS011;63842;52.144;5.360;2022-12-18T14:18:45;17.75;;;8.00;;
70796;SDS011;63842;52.144;5.360;2022-12-18T14:21:20;18.63;;;8.18;;
70796;SDS011;63842;52.144;5.360;2022-12-18T14:23:48;19.67;;;8.02;;
70796;SDS011;63842;52.144;5.360;2022-12-18T14:26:20;18.15;;;7.57;;
70796;SDS011;63842;52.144;5.360;2022-12-18T14:28:48;19.95;;;8.23;;
70796;SDS011;63842;52.144;5.360;2022-12-18T14:31:19;17.70;;;8.07;;
70796;SDS011;63842;52.144;5.360;2022-12-18T14:33:47;18.02;;;7.88;;
70796;SDS011;63842;52.144;5.360;2022-12-18T14:36:16;20.75;;;8.00;;
70796;SDS011;63842;52.144;5.360;2022-12-18T14:38:47;18.23;;;7.72;;
70796;SDS011;63842;52.144;5.360;2022-12-18T14:41:17;17.33;;;7.70;;
70796;SDS011;63842;52.144;5.360;2022-12-18T14:43:46;19.48;;;8.13;;
70796;SDS011;63842;52.144;5.360;2022-12-18T14:48:57;19.52;;;8.07;;
70796;SDS011;63842;52.144;5.360;2022-12-18T14:51:25;18.90;;;7.93;;
70796;SDS011;63842;52.144;5.360;2022-12-18T14:58:50;18.08;;;8.25;;
70796;SDS011;63842;52.144;5.360;2022-12-18T15:01:34;19.90;;;7.93;;
70796;SDS011;63842;52.144;5.360;2022-12-18T15:04:04;19.75;;;8.00;;
70796;SDS011;63842;52.144;5.360;2022-12-18T15:06:36;19.85;;;7.97;;
70796;SDS011;63842;52.144;5.360;2022-12-18T15:09:25;17.92;;;7.60;;
70796;SDS011;63842;52.144;5.360;2022-12-18T15:11:56;21.67;;;8.50;;
70796;SDS011;63842;52.144;5.360;2022-12-18T15:14:30;20.15;;;7.93;;
70796;SDS011;63842;52.144;5.360;2022-12-18T15:16:59;25.05;;;7.75;;
70796;SDS011;63842;52.144;5.360;2022-12-18T15:19:48;16.80;;;8.32;;
70796;SDS011;63842;52.144;5.360;2022-12-18T15:24:45;19.75;;;8.40;;
70796;SDS011;63842;52.144;5.360;2022-12-18T15:27:20;19.33;;;7.78;;
70796;SDS011;63842;52.144;5.360;2022-12-18T15:32:36;17.67;;;8.15;;
70796;SDS011;63842;52.144;5.360;2022-12-18T15:37:38;19.88;;;8.27;;
70796;SDS011;63842;52.144;5.360;2022-12-18T15:40:07;21.52;;;8.65;;
70796;SDS011;63842;52.144;5.360;2022-12-18T15:42:34;19.58;;;8.70;;
70796;SDS011;63842;52.144;5.360;2022-12-18T15:45:20;18.95;;;8.23;;
70796;SDS011;63842;52.144;5.360;2022-12-18T15:47:49;18.75;;;8.25;;
70796;SDS011;63842;52.144;5.360;2022-12-18T15:50:17;18.15;;;7.57;;
70796;SDS011;63842;52.144;5.360;2022-12-18T15:52:45;21.75;;;9.13;;
70796;SDS011;63842;52.144;5.360;2022-12-18T15:55:14;22.15;;;8.73;;
70796;SDS011;63842;52.144;5.360;2022-12-18T15:58:01;20.73;;;9.07;;
70796;SDS011;63842;52.144;5.360;2022-12-18T16:00:28;22.73;;;9.57;;
70796;SDS011;63842;52.144;5.360;2022-12-18T16:02:56;19.73;;;8.55;;
70796;SDS011;63842;52.144;5.360;2022-12-18T16:05:24;20.65;;;9.02;;
70796;SDS011;63842;52.144;5.360;2022-12-18T16:07:51;26.85;;;10.60;;
70796;SDS011;63842;52.144;5.360;2022-12-18T16:10:18;26.60;;;10.00;;
70796;SDS011;63842;52.144;5.360;2022-12-18T16:12:46;27.83;;;10.63;;
70796;SDS011;63842;52.144;5.360;2022-12-18T16:15:14;23.13;;;9.25;;
70796;SDS011;63842;52.144;5.360;2022-12-18T16:17:49;24.52;;;10.13;;
70796;SDS011;63842;52.144;5.360;2022-12-18T16:20:19;23.40;;;9.65;;
70796;SDS011;63842;52.144;5.360;2022-12-18T16:22:48;24.70;;;10.00;;
70796;SDS011;63842;52.144;5.360;2022-12-18T16:25:19;25.40;;;10.60;;
70796;SDS011;63842;52.144;5.360;2022-12-18T16:27:47;26.17;;;10.55;;
70796;SDS011;63842;52.144;5.360;2022-12-18T16:30:18;30.55;;;10.68;;
70796;SDS011;63842;52.144;5.360;2022-12-18T16:32:46;24.48;;;10.43;;
70796;SDS011;63842;52.144;5.360;2022-12-18T16:35:14;26.30;;;9.48;;
70796;SDS011;63842;52.144;5.360;2022-12-18T16:37:42;23.63;;;9.38;;
70796;SDS011;63842;52.144;5.360;2022-12-18T16:40:10;23.45;;;9.65;;
70796;SDS011;63842;52.144;5.360;2022-12-18T16:42:38;22.08;;;9.32;;
70796;SDS011;63842;52.144;5.360;2022-12-18T16:45:07;26.42;;;10.15;;